Time;durP1;ratioP1;P1;durP2;ratioP2;P2;SDS_P1;SDS_P2;PMS_P1;PMS_P2;Temp;Humidity;BMP_temperature;BMP_pressure;BME280_temperature;BME280_humidity;BME280_pressure;Samples;Min_cycle;Max_cycle;Signal;HPM_P1;HPM_P2
2022/01/23 00:01:54;;;;;;;14.07;7.30;;;;;;;;;;6243577;28;20480;-78
2022/01/23 00:04:56;;;;;;;14.55;7.43;;;;;;;;;;6245926;28;20071;-79
2022/01/23 00:07:57;;;;;;;17.33;7.80;;;;;;;;;;6263569;28;20045;-79
2022/01/23 00:10:59;;;;;;;16.70;8.95;;;;;;;;;;6278298;28;20047;-79
2022/01/23 00:20:19;;;;;;;16.58;8.50;;;;;;;;;;6263671;28;20131;-79
2022/01/23 00:33:10;;;;;;;18.63;8.98;;;;;;;;;;6260488;28;20049;-79
2022/01/23 00:36:12;;;;;;;16.17;7.68;;;;;;;;;;6244072;28;20059;-80
2022/01/23 00:39:14;;;;;;;19.17;7.57;;;;;;;;;;6269258;28;20051;-78
2022/01/23 00:42:16;;;;;;;16.30;7.50;;;;;;;;;;6249498;28;20148;-82
2022/01/23 00:48:27;;;;;;;16.90;7.50;;;;;;;;;;6260593;28;20088;-82
2022/01/23 00:51:34;;;;;;;17.92;8.13;;;;;;;;;;6261955;28;20045;-82
2022/01/23 00:54:35;;;;;;;17.98;8.27;;;;;;;;;;6281671;28;20116;-77
2022/01/23 00:57:37;;;;;;;18.55;9.23;;;;;;;;;;6294834;28;20052;-78
2022/01/23 01:00:41;;;;;;;18.77;8.27;;;;;;;;;;6270534;28;20045;-80
2022/01/23 01:03:43;;;;;;;17.25;8.02;;;;;;;;;;6279187;28;20051;-81
2022/01/23 01:06:45;;;;;;;18.35;8.60;;;;;;;;;;6245597;28;20120;-80
2022/01/23 01:09:50;;;;;;;18.75;8.77;;;;;;;;;;6279007;28;20775;-81
2022/01/23 01:12:56;;;;;;;20.67;8.93;;;;;;;;;;6245839;28;20461;-80
2022/01/23 01:32:38;;;;;;;30.65;11.75;;;;;;;;;;6276540;28;20083;-81
2022/01/23 01:35:48;;;;;;;27.45;11.90;;;;;;;;;;6251270;28;20059;-81
2022/01/23 01:38:50;;;;;;;30.88;12.75;;;;;;;;;;6266176;28;20175;-82
2022/01/23 01:41:56;;;;;;;33.38;12.82;;;;;;;;;;6249200;28;20520;-79
2022/01/23 01:45:00;;;;;;;32.08;12.60;;;;;;;;;;6265797;28;20104;-79
2022/01/23 01:48:24;;;;;;;31.38;12.45;;;;;;;;;;6266619;28;20556;-79
2022/01/23 01:51:35;;;;;;;31.38;13.18;;;;;;;;;;6266393;28;20044;-77
2022/01/23 01:54:43;;;;;;;36.22;14.25;;;;;;;;;;6265760;28;20041;-81
2022/01/23 01:57:56;;;;;;;42.05;14.45;;;;;;;;;;6265352;28;20079;-81
2022/01/23 02:11:46;;;;;;;43.38;16.85;;;;;;;;;;6264423;28;20124;-81
2022/01/23 02:50:59;;;;;;;34.95;12.98;;;;;;;;;;6269105;28;20040;-80
2022/01/23 02:57:10;;;;;;;32.75;12.93;;;;;;;;;;6268027;28;20099;-78
2022/01/23 03:00:16;;;;;;;29.73;12.77;;;;;;;;;;6269269;28;20053;-81
2022/01/23 03:03:48;;;;;;;34.38;12.68;;;;;;;;;;6264854;28;20403;-81
2022/01/23 03:10:44;;;;;;;34.05;11.88;;;;;;;;;;6268250;28;20045;-81
2022/01/23 03:13:56;;;;;;;31.27;12.05;;;;;;;;;;6271476;28;20083;-80
2022/01/23 03:27:27;;;;;;;37.70;13.25;;;;;;;;;;6266911;28;20047;-81
2022/01/23 03:30:29;;;;;;;30.08;11.82;;;;;;;;;;6269834;28;20045;-80
2022/01/23 03:33:34;;;;;;;34.80;11.98;;;;;;;;;;6251120;28;20179;-81
2022/01/23 03:36:37;;;;;;;31.98;13.18;;;;;;;;;;6268636;28;20102;-81
2022/01/23 03:39:39;;;;;;;36.83;12.88;;;;;;;;;;6268361;28;20523;-82
2022/01/23 03:42:42;;;;;;;33.60;12.20;;;;;;;;;;6284086;28;20131;-82
2022/01/23 03:52:04;;;;;;;34.80;13.13;;;;;;;;;;6284695;28;20045;-78
2022/01/23 03:55:07;;;;;;;31.08;12.18;;;;;;;;;;6266696;28;20048;-80
2022/01/23 03:58:10;;;;;;;31.73;13.05;;;;;;;;;;6269299;28;20049;-79
2022/01/23 04:01:12;;;;;;;29.95;11.45;;;;;;;;;;6279278;28;20148;-78
2022/01/23 04:04:36;;;;;;;37.30;12.90;;;;;;;;;;6267867;28;20057;-79
2022/01/23 04:07:37;;;;;;;33.45;13.13;;;;;;;;;;6267718;28;20053;-81
2022/01/23 04:10:39;;;;;;;32.13;11.75;;;;;;;;;;6266214;28;20056;-81
2022/01/23 04:13:47;;;;;;;28.10;10.73;;;;;;;;;;6269504;28;20516;-78
2022/01/23 04:20:10;;;;;;;31.52;11.82;;;;;;;;;;6256826;28;20590;-77
2022/01/23 05:00:10;;;;;;;32.22;12.88;;;;;;;;;;6262365;28;20059;-81
2022/01/23 05:04:04;;;;;;;32.83;12.25;;;;;;;;;;6245611;28;20144;-78
2022/01/23 05:07:04;;;;;;;35.15;12.05;;;;;;;;;;6280543;28;20049;-77
2022/01/23 05:10:24;;;;;;;30.92;11.13;;;;;;;;;;6272458;28;20041;-81
2022/01/23 05:13:43;;;;;;;28.67;10.73;;;;;;;;;;6240273;28;20041;-80
2022/01/23 05:16:45;;;;;;;26.90;9.85;;;;;;;;;;6226727;28;20049;-80
2022/01/23 05:19:47;;;;;;;27.25;9.85;;;;;;;;;;6246552;28;20152;-80
2022/01/23 05:22:51;;;;;;;17.48;7.20;;;;;;;;;;6263764;28;20047;-81
2022/01/23 05:25:53;;;;;;;18.42;7.78;;;;;;;;;;6247844;28;20101;-78
2022/01/23 05:28:56;;;;;;;21.27;7.25;;;;;;;;;;6246579;28;20045;-81
2022/01/23 05:31:58;;;;;;;22.05;8.93;;;;;;;;;;6245480;28;20419;-80
2022/01/23 05:35:00;;;;;;;22.88;9.63;;;;;;;;;;6249259;28;20049;-81
2022/01/23 05:38:03;;;;;;;22.23;9.35;;;;;;;;;;6249248;28;20494;-81
2022/01/23 05:41:04;;;;;;;26.02;9.77;;;;;;;;;;6262243;28;20049;-78
2022/01/23 05:44:06;;;;;;;23.63;9.00;;;;;;;;;;6248841;28;20049;-81
2022/01/23 05:47:10;;;;;;;27.15;9.43;;;;;;;;;;6236997;28;20044;-82
2022/01/23 05:50:31;;;;;;;25.55;9.15;;;;;;;;;;6268511;28;20056;-79
2022/01/23 05:53:51;;;;;;;27.20;9.40;;;;;;;;;;6284399;28;20057;-80
2022/01/23 05:57:25;;;;;;;27.08;9.05;;;;;;;;;;6249716;28;20049;-80
2022/01/23 06:00:39;;;;;;;27.95;10.05;;;;;;;;;;6273074;28;20041;-81
2022/01/23 06:03:46;;;;;;;29.27;11.00;;;;;;;;;;6269369;28;20037;-81
2022/01/23 06:06:53;;;;;;;26.55;9.88;;;;;;;;;;6254140;28;20049;-80
2022/01/23 06:09:55;;;;;;;28.25;9.90;;;;;;;;;;6270121;28;20045;-77
2022/01/23 06:12:57;;;;;;;31.05;10.18;;;;;;;;;;6247586;28;20041;-80
2022/01/23 06:15:59;;;;;;;29.27;11.35;;;;;;;;;;6245832;28;20065;-79
2022/01/23 06:19:01;;;;;;;33.57;11.13;;;;;;;;;;6267382;28;20498;-80
2022/01/23 06:22:22;;;;;;;27.13;10.35;;;;;;;;;;6270734;28;20474;-79
2022/01/23 06:25:46;;;;;;;27.95;10.02;;;;;;;;;;6271968;28;20526;-81
2022/01/23 06:29:02;;;;;;;28.83;9.23;;;;;;;;;;6271069;28;20044;-79
2022/01/23 06:32:05;;;;;;;23.70;8.68;;;;;;;;;;6268180;28;20052;-81
2022/01/23 06:35:07;;;;;;;26.02;9.65;;;;;;;;;;6266607;28;20083;-81
2022/01/23 06:38:08;;;;;;;27.00;9.73;;;;;;;;;;6276219;28;20100;-79
2022/01/23 06:41:10;;;;;;;24.08;9.80;;;;;;;;;;6285592;28;20045;-78
2022/01/23 06:44:19;;;;;;;24.33;9.02;;;;;;;;;;6268516;28;20464;-81
2022/01/23 06:47:21;;;;;;;31.05;10.32;;;;;;;;;;6252006;28;20048;-81
2022/01/23 06:50:24;;;;;;;25.25;9.63;;;;;;;;;;6252832;28;20045;-81
2022/01/23 06:53:26;;;;;;;26.15;9.73;;;;;;;;;;6253336;28;20037;-81
2022/01/23 06:56:28;;;;;;;28.10;9.60;;;;;;;;;;6232523;28;20040;-81
2022/01/23 06:59:30;;;;;;;28.27;9.98;;;;;;;;;;6236879;28;20037;-81
2022/01/23 07:02:43;;;;;;;31.98;10.27;;;;;;;;;;6270801;28;20111;-80
2022/01/23 07:05:54;;;;;;;27.75;10.23;;;;;;;;;;6268976;28;20041;-79
2022/01/23 07:09:11;;;;;;;25.08;9.63;;;;;;;;;;6281570;28;20052;-80
2022/01/23 07:12:35;;;;;;;30.25;10.60;;;;;;;;;;6269030;28;20044;-80
2022/01/23 07:15:39;;;;;;;26.33;9.85;;;;;;;;;;6271434;28;20073;-79
2022/01/23 07:18:53;;;;;;;;;;;;;;;;;;6259087;28;20044;-81
2022/01/23 07:21:56;;;;;;;52.17;19.83;;;;;;;;;;6275067;28;19931;-81
2022/01/23 07:25:01;;;;;;;40.25;15.32;;;;;;;;;;6273553;28;20736;-80
2022/01/23 07:28:05;;;;;;;30.80;13.55;;;;;;;;;;6272184;28;20041;-81
2022/01/23 07:31:09;;;;;;;27.60;11.63;;;;;;;;;;6251285;28;20041;-79
2022/01/23 07:34:12;;;;;;;26.27;9.75;;;;;;;;;;6244006;28;20045;-78
2022/01/23 07:37:15;;;;;;;26.80;9.47;;;;;;;;;;6271652;28;20132;-78
2022/01/23 07:40:35;;;;;;;21.55;7.95;;;;;;;;;;6276879;28;20048;-81
2022/01/23 07:43:41;;;;;;;19.70;7.55;;;;;;;;;;6288651;28;20055;-78
2022/01/23 07:47:02;;;;;;;18.33;6.22;;;;;;;;;;6259665;28;20048;-79
2022/01/23 07:50:24;;;;;;;17.83;6.65;;;;;;;;;;6274443;28;20048;-80
2022/01/23 07:53:45;;;;;;;20.92;6.68;;;;;;;;;;6257050;28;20038;-80
2022/01/23 07:57:07;;;;;;;19.10;7.65;;;;;;;;;;6270321;28;20053;-80
2022/01/23 08:00:29;;;;;;;17.05;6.53;;;;;;;;;;6264855;28;20037;-79
2022/01/23 08:03:32;;;;;;;;;;;;;;;;;;6270162;28;20045;-79
2022/01/23 08:06:54;;;;;;;16.10;6.55;;;;;;;;;;6277250;28;19928;-82
2022/01/23 08:10:19;;;;;;;20.23;7.75;;;;;;;;;;6226612;28;20057;-81
2022/01/23 08:13:22;;;;;;;20.70;7.55;;;;;;;;;;6263953;28;20116;-83
2022/01/23 08:16:25;;;;;;;19.70;6.85;;;;;;;;;;6266976;28;20037;-82
2022/01/23 08:19:27;;;;;;;26.83;10.02;;;;;;;;;;6250602;28;20049;-82
2022/01/23 08:22:30;;;;;;;22.70;9.77;;;;;;;;;;6267268;28;20041;-82
2022/01/23 08:25:33;;;;;;;21.85;7.47;;;;;;;;;;6270049;28;20135;-81
2022/01/23 08:28:34;;;;;;;28.50;11.23;;;;;;;;;;6272026;28;20071;-78
2022/01/23 08:31:36;;;;;;;22.50;10.00;;;;;;;;;;6281261;28;20040;-78
2022/01/23 08:34:39;;;;;;;24.75;11.23;;;;;;;;;;6274860;28;20056;-82
2022/01/23 08:37:42;;;;;;;19.85;7.70;;;;;;;;;;6269922;28;20498;-78
2022/01/23 08:43:48;;;;;;;20.10;9.48;;;;;;;;;;6269035;28;20079;-79
2022/01/23 08:46:51;;;;;;;21.00;11.13;;;;;;;;;;6267665;28;20041;-82
2022/01/23 08:49:52;;;;;;;24.38;11.40;;;;;;;;;;6272596;28;20414;-81
2022/01/23 08:52:54;;;;;;;22.58;11.00;;;;;;;;;;6278896;28;20124;-81
2022/01/23 08:55:56;;;;;;;25.10;10.80;;;;;;;;;;6253697;28;20061;-78
2022/01/23 08:58:58;;;;;;;21.27;9.45;;;;;;;;;;6270070;28;20366;-79
2022/01/23 09:02:00;;;;;;;19.92;7.82;;;;;;;;;;6285418;28;20049;-80
2022/01/23 09:05:02;;;;;;;16.30;6.68;;;;;;;;;;6271304;28;20414;-77
2022/01/23 09:08:04;;;;;;;20.23;7.78;;;;;;;;;;6272673;28;20059;-78
2022/01/23 09:11:24;;;;;;;16.43;7.17;;;;;;;;;;6277616;28;20051;-81
2022/01/23 09:14:26;;;;;;;18.17;7.68;;;;;;;;;;6246546;28;20127;-79
2022/01/23 09:17:28;;;;;;;16.67;7.07;;;;;;;;;;6262455;28;20124;-79
2022/01/23 09:20:29;;;;;;;20.40;9.05;;;;;;;;;;6261767;28;20051;-78
2022/01/23 09:23:32;;;;;;;27.02;11.63;;;;;;;;;;6269650;28;20057;-80
2022/01/23 09:26:36;;;;;;;24.27;10.73;;;;;;;;;;6274495;28;20123;-78
2022/01/23 09:29:40;;;;;;;19.13;10.55;;;;;;;;;;6273770;28;20052;-81
2022/01/23 09:32:43;;;;;;;20.77;10.23;;;;;;;;;;6264752;28;20088;-79
2022/01/23 09:35:45;;;;;;;33.47;15.65;;;;;;;;;;6286423;28;20037;-82
2022/01/23 09:38:47;;;;;;;32.53;16.15;;;;;;;;;;6273684;28;20087;-79
2022/01/23 09:41:56;;;;;;;28.13;14.45;;;;;;;;;;6286725;28;20041;-81
2022/01/23 09:45:00;;;;;;;27.63;15.13;;;;;;;;;;6272978;28;20042;-81
2022/01/23 09:48:03;;;;;;;31.60;16.23;;;;;;;;;;6273408;28;20681;-82
2022/01/23 09:51:05;;;;;;;24.65;12.25;;;;;;;;;;6272768;28;20041;-79
2022/01/23 09:54:09;;;;;;;23.33;11.40;;;;;;;;;;6265042;28;20045;-82
2022/01/23 09:57:12;;;;;;;19.80;9.90;;;;;;;;;;6275720;28;20052;-81
2022/01/23 10:00:19;;;;;;;18.30;8.80;;;;;;;;;;6270880;28;20041;-79
2022/01/23 10:03:21;;;;;;;25.35;11.88;;;;;;;;;;6276821;28;20055;-82
2022/01/23 10:06:23;;;;;;;15.75;7.55;;;;;;;;;;6269029;28;20041;-81
2022/01/23 10:09:26;;;;;;;17.35;8.13;;;;;;;;;;6267107;28;20051;-81
2022/01/23 10:12:28;;;;;;;12.82;6.88;;;;;;;;;;6267568;28;20037;-79
2022/01/23 10:15:32;;;;;;;14.23;6.30;;;;;;;;;;6270860;28;20065;-81
2022/01/23 10:18:33;;;;;;;;;;;;;;;;;;6280264;28;20041;-82
2022/01/23 10:21:39;;;;;;;24.73;10.40;;;;;;;;;;6271987;28;20027;-81
2022/01/23 10:24:41;;;;;;;11.13;5.40;;;;;;;;;;6264579;28;20716;-82
2022/01/23 10:28:02;;;;;;;10.93;5.60;;;;;;;;;;6254098;28;20147;-81
2022/01/23 10:31:05;;;;;;;12.52;6.78;;;;;;;;;;6275182;28;20117;-81
2022/01/23 10:34:07;;;;;;;9.00;4.32;;;;;;;;;;6243029;28;20045;-82
2022/01/23 10:37:11;;;;;;;11.15;4.88;;;;;;;;;;6268252;28;20047;-83
2022/01/23 10:40:23;;;;;;;9.95;4.90;;;;;;;;;;6276059;28;20189;-81
2022/01/23 10:50:28;;;;;;;19.15;9.65;;;;;;;;;;6270285;28;20490;-81
2022/01/23 10:53:30;;;;;;;9.35;4.57;;;;;;;;;;6260956;28;20033;-81
2022/01/23 10:56:38;;;;;;;9.18;3.95;;;;;;;;;;6256224;28;20040;-80
2022/01/23 10:59:48;;;;;;;9.48;3.88;;;;;;;;;;6260409;28;20512;-80
2022/01/23 11:02:50;;;;;;;25.27;10.95;;;;;;;;;;6265942;28;20045;-79
2022/01/23 11:05:52;;;;;;;11.80;6.47;;;;;;;;;;6271402;28;20056;-79
2022/01/23 11:09:07;;;;;;;13.07;6.18;;;;;;;;;;6260092;28;20195;-80
2022/01/23 11:12:27;;;;;;;22.25;11.95;;;;;;;;;;6270491;28;20047;-81
2022/01/23 11:18:59;;;;;;;6.00;3.33;;;;;;;;;;6255597;28;20045;-80
2022/01/23 11:22:03;;;;;;;8.18;4.20;;;;;;;;;;6241286;28;20045;-80
2022/01/23 11:25:08;;;;;;;5.85;3.38;;;;;;;;;;6243905;28;20049;-80
2022/01/23 11:28:10;;;;;;;7.18;3.92;;;;;;;;;;6252425;28;20124;-80
2022/01/23 11:31:17;;;;;;;5.07;2.50;;;;;;;;;;6273068;28;20056;-81
2022/01/23 11:34:22;;;;;;;2.67;1.45;;;;;;;;;;6249273;28;20049;-81
2022/01/23 11:37:24;;;;;;;2.22;1.10;;;;;;;;;;6264024;28;20137;-78
2022/01/23 11:40:43;;;;;;;2.13;1.40;;;;;;;;;;6263743;28;20147;-78
2022/01/23 11:53:59;;;;;;;2.70;1.17;;;;;;;;;;6268648;28;20753;-78
2022/01/23 11:57:03;;;;;;;1.00;0.90;;;;;;;;;;6277956;28;20055;-80
2022/01/23 12:00:32;;;;;;;0.60;0.40;;;;;;;;;;6272925;28;20041;-82
2022/01/23 12:03:34;;;;;;;1.05;0.70;;;;;;;;;;6249304;28;20041;-79
2022/01/23 12:06:39;;;;;;;0.52;0.50;;;;;;;;;;6268642;28;20045;-81
2022/01/23 12:10:02;;;;;;;1.42;0.70;;;;;;;;;;6285903;28;20055;-81
2022/01/23 12:13:56;;;;;;;14.07;5.32;;;;;;;;;;6269571;28;20043;-78
2022/01/23 12:17:24;;;;;;;3.97;1.73;;;;;;;;;;6286360;28;20113;-79
2022/01/23 12:20:33;;;;;;;23.92;9.55;;;;;;;;;;6272103;28;20043;-79
2022/01/23 12:23:59;;;;;;;0.73;0.65;;;;;;;;;;6286362;28;21557;-80
2022/01/23 12:27:19;;;;;;;2.63;1.13;;;;;;;;;;6234506;28;20048;-80
2022/01/23 12:30:20;;;;;;;16.45;5.55;;;;;;;;;;6242735;28;20484;-79
2022/01/23 12:33:38;;;;;;;4.30;1.92;;;;;;;;;;6259162;28;20090;-79
2022/01/23 12:36:40;;;;;;;2.20;1.20;;;;;;;;;;6283476;28;20617;-81
2022/01/23 12:39:43;;;;;;;11.07;4.40;;;;;;;;;;6249164;28;20147;-81
2022/01/23 12:43:26;;;;;;;2.65;1.20;;;;;;;;;;6282275;28;20310;-79
2022/01/23 12:46:37;;;;;;;10.13;3.30;;;;;;;;;;6221151;28;20049;-80
2022/01/23 12:49:50;;;;;;;21.08;6.68;;;;;;;;;;6239993;28;20091;-79
2022/01/23 12:52:52;;;;;;;7.63;2.85;;;;;;;;;;6268289;28;20123;-78
2022/01/23 12:56:04;;;;;;;3.28;1.70;;;;;;;;;;6265314;28;20112;-81
2022/01/23 12:59:09;;;;;;;3.20;1.70;;;;;;;;;;6282723;28;20602;-81
2022/01/23 13:02:16;;;;;;;2.47;1.50;;;;;;;;;;6280051;28;20049;-80
2022/01/23 13:05:19;;;;;;;3.10;1.60;;;;;;;;;;6280684;28;20410;-79
2022/01/23 13:08:29;;;;;;;1.83;1.00;;;;;;;;;;6264745;28;20498;-79
2022/01/23 13:28:32;;;;;;;7.55;2.97;;;;;;;;;;6268507;28;20051;-79
2022/01/23 13:31:12;;;;;;;21.42;6.57;;;;;;;;;;6267399;28;20045;-80
2022/01/23 13:34:32;;;;;;;7.13;2.67;;;;;;;;;;6266356;28;20060;-80
2022/01/23 13:37:37;;;;;;;6.60;2.90;;;;;;;;;;6265743;28;20063;-79
2022/01/23 13:40:42;;;;;;;4.00;2.15;;;;;;;;;;6266469;28;20119;-79
2022/01/23 14:00:26;;;;;;;2.67;1.20;;;;;;;;;;6265559;28;20052;-81
2022/01/23 14:03:28;;;;;;;2.35;0.93;;;;;;;;;;6265192;28;20045;-80
2022/01/23 14:06:30;;;;;;;2.03;1.88;;;;;;;;;;6266928;28;20045;-81
2022/01/23 14:09:43;;;;;;;5.60;3.03;;;;;;;;;;6267619;28;20049;-81
2022/01/23 14:12:47;;;;;;;1.50;0.70;;;;;;;;;;6263829;28;20077;-80
2022/01/23 14:15:54;;;;;;;1.10;0.73;;;;;;;;;;6270691;28;20059;-81
2022/01/23 14:19:12;;;;;;;1.23;0.90;;;;;;;;;;6269123;28;20051;-79
2022/01/23 14:22:26;;;;;;;2.35;1.08;;;;;;;;;;6285390;28;20044;-81
2022/01/23 14:25:28;;;;;;;2.00;1.33;;;;;;;;;;6268451;28;20051;-81
2022/01/23 14:28:38;;;;;;;1.00;0.90;;;;;;;;;;6263071;28;20060;-78
2022/01/23 14:31:41;;;;;;;9.35;4.03;;;;;;;;;;6257982;28;20456;-81
2022/01/23 14:34:43;;;;;;;6.72;3.20;;;;;;;;;;6266171;28;20083;-80
2022/01/23 14:37:47;;;;;;;1.55;0.98;;;;;;;;;;6269642;28;20033;-81
2022/01/23 14:40:59;;;;;;;2.90;0.90;;;;;;;;;;6268686;28;20517;-80
2022/01/23 14:44:13;;;;;;;1.75;1.02;;;;;;;;;;6277838;28;20067;-80
2022/01/23 14:47:16;;;;;;;1.15;0.65;;;;;;;;;;6257769;28;20497;-80
2022/01/23 14:50:20;;;;;;;1.33;0.90;;;;;;;;;;6271018;28;20132;-80
2022/01/23 14:53:23;;;;;;;2.35;1.10;;;;;;;;;;6276493;28;20063;-79
2022/01/23 14:56:26;;;;;;;1.58;0.90;;;;;;;;;;6248302;28;20059;-81
2022/01/23 14:59:30;;;;;;;2.83;1.33;;;;;;;;;;6256033;28;20044;-81
2022/01/23 15:02:32;;;;;;;1.55;0.90;;;;;;;;;;6266296;28;20110;-82
2022/01/23 15:05:37;;;;;;;1.80;1.08;;;;;;;;;;6271365;28;20049;-81
2022/01/23 15:08:39;;;;;;;3.80;1.42;;;;;;;;;;6274075;28;20133;-82
2022/01/23 15:11:41;;;;;;;1.50;1.15;;;;;;;;;;6271945;28;20053;-82
2022/01/23 15:14:43;;;;;;;3.88;1.63;;;;;;;;;;6269675;28;20040;-80
2022/01/23 15:17:44;;;;;;;2.58;1.70;;;;;;;;;;6280127;28;20049;-81
2022/01/23 15:20:47;;;;;;;2.03;0.95;;;;;;;;;;6275432;28;20049;-81
2022/01/23 15:23:55;;;;;;;11.38;6.32;;;;;;;;;;6277544;28;20076;-82
2022/01/23 15:26:57;;;;;;;4.93;2.95;;;;;;;;;;6294345;28;20045;-81
2022/01/23 15:29:58;;;;;;;4.22;3.03;;;;;;;;;;6283803;28;20061;-81
2022/01/23 15:33:01;;;;;;;3.97;2.10;;;;;;;;;;6274073;28;20116;-81
2022/01/23 15:36:03;;;;;;;33.83;12.45;;;;;;;;;;6272262;28;20076;-81
2022/01/23 15:39:06;;;;;;;11.60;5.68;;;;;;;;;;6254709;28;20037;-78
2022/01/23 15:42:08;;;;;;;9.52;5.50;;;;;;;;;;6287165;28;20048;-78
2022/01/23 15:45:11;;;;;;;2.63;1.92;;;;;;;;;;6286771;28;20048;-79
2022/01/23 15:48:13;;;;;;;3.92;2.45;;;;;;;;;;6268839;28;20076;-82
2022/01/23 15:51:15;;;;;;;5.90;3.60;;;;;;;;;;6269467;28;20079;-81
2022/01/23 15:54:19;;;;;;;4.88;2.83;;;;;;;;;;6252915;28;20052;-82
2022/01/23 15:57:21;;;;;;;6.43;3.40;;;;;;;;;;6268875;28;20056;-80
2022/01/23 16:00:23;;;;;;;4.93;2.53;;;;;;;;;;6252864;28;20143;-82
2022/01/23 16:03:26;;;;;;;8.73;3.63;;;;;;;;;;6267129;28;20055;-80
2022/01/23 16:06:28;;;;;;;3.70;1.60;;;;;;;;;;6249901;28;20530;-80
2022/01/23 16:09:30;;;;;;;2.40;1.30;;;;;;;;;;6280238;28;20049;-79
2022/01/23 16:12:32;;;;;;;3.03;1.50;;;;;;;;;;6265589;28;20052;-80
2022/01/23 16:15:38;;;;;;;4.13;1.85;;;;;;;;;;6266423;28;20041;-80
2022/01/23 16:18:39;;;;;;;4.95;2.13;;;;;;;;;;6265646;28;20524;-82
2022/01/23 16:21:44;;;;;;;4.38;2.20;;;;;;;;;;6249072;28;20061;-81
2022/01/23 16:24:45;;;;;;;5.18;1.75;;;;;;;;;;6267079;28;20047;-82
2022/01/23 16:27:47;;;;;;;8.35;5.03;;;;;;;;;;6277155;28;20053;-82
2022/01/23 16:30:54;;;;;;;6.93;5.43;;;;;;;;;;6280132;28;20072;-82
2022/01/23 16:33:56;;;;;;;9.57;3.45;;;;;;;;;;6268006;28;20059;-81
2022/01/23 16:36:58;;;;;;;7.13;2.70;;;;;;;;;;6284110;28;20040;-82
2022/01/23 16:40:00;;;;;;;10.77;4.20;;;;;;;;;;6258858;28;20044;-82
2022/01/23 16:43:01;;;;;;;5.82;3.35;;;;;;;;;;6266202;28;20041;-80
2022/01/23 16:46:04;;;;;;;4.78;3.80;;;;;;;;;;6264209;28;20489;-81
2022/01/23 16:49:10;;;;;;;;;;;;;;;;;;6266230;28;20045;-81
2022/01/23 16:52:12;;;;;;;5.68;4.72;;;;;;;;;;6280067;28;19932;-82
2022/01/23 16:55:14;;;;;;;7.10;6.10;;;;;;;;;;6273530;28;20060;-79
2022/01/23 16:58:15;;;;;;;5.65;3.72;;;;;;;;;;6287411;28;20051;-81
2022/01/23 17:01:18;;;;;;;7.05;4.40;;;;;;;;;;6282488;28;20519;-81
2022/01/23 17:04:22;;;;;;;6.82;4.50;;;;;;;;;;6234267;28;20134;-79
2022/01/23 17:07:24;;;;;;;15.50;9.03;;;;;;;;;;6249090;28;20465;-79
2022/01/23 17:10:25;;;;;;;9.55;6.07;;;;;;;;;;6270351;28;20482;-81
2022/01/23 17:13:31;;;;;;;15.00;10.70;;;;;;;;;;6250571;28;20045;-81
2022/01/23 17:16:33;;;;;;;8.57;5.80;;;;;;;;;;6264033;28;20127;-79
2022/01/23 17:19:36;;;;;;;8.57;5.90;;;;;;;;;;6268068;28;20045;-80
2022/01/23 17:22:45;;;;;;;6.90;4.25;;;;;;;;;;6269327;28;20068;-80
2022/01/23 17:25:47;;;;;;;8.90;4.40;;;;;;;;;;6271996;28;20080;-80
2022/01/23 17:28:49;;;;;;;6.07;3.60;;;;;;;;;;6243189;28;20109;-80
2022/01/23 17:31:52;;;;;;;5.47;3.38;;;;;;;;;;6276336;28;20542;-80
2022/01/23 17:34:54;;;;;;;7.93;4.25;;;;;;;;;;6266329;28;20064;-81
2022/01/23 17:37:57;;;;;;;16.67;7.28;;;;;;;;;;6282015;28;20041;-81
2022/01/23 17:40:58;;;;;;;15.35;6.93;;;;;;;;;;6258215;28;20107;-81
2022/01/23 17:44:00;;;;;;;13.30;7.07;;;;;;;;;;6267242;28;20555;-81
2022/01/23 17:47:18;;;;;;;20.55;10.40;;;;;;;;;;6276445;28;20148;-81
2022/01/23 17:50:32;;;;;;;20.00;10.55;;;;;;;;;;6263863;28;20040;-78
2022/01/23 17:53:35;;;;;;;20.38;10.50;;;;;;;;;;6286740;28;20123;-79
2022/01/23 17:56:37;;;;;;;27.98;14.75;;;;;;;;;;6271370;28;20041;-81
2022/01/23 17:59:38;;;;;;;70.18;32.75;;;;;;;;;;6264178;28;20039;-80
2022/01/23 18:02:43;;;;;;;43.78;19.75;;;;;;;;;;6278517;28;20152;-80
2022/01/23 18:05:49;;;;;;;30.58;13.93;;;;;;;;;;6268718;28;20055;-82
2022/01/23 18:08:51;;;;;;;24.23;10.10;;;;;;;;;;6272758;28;20414;-81
2022/01/23 18:11:53;;;;;;;17.30;8.40;;;;;;;;;;6264312;28;20068;-81
2022/01/23 18:14:57;;;;;;;;;;;;;;;;;;6268971;28;20048;-79
2022/01/23 18:18:01;;;;;;;11.95;6.75;;;;;;;;;;6275560;28;19975;-80
2022/01/23 18:21:03;;;;;;;17.10;8.88;;;;;;;;;;6283945;28;20767;-82
2022/01/23 18:24:18;;;;;;;29.95;12.40;;;;;;;;;;6272041;28;20036;-81
2022/01/23 18:27:21;;;;;;;23.73;11.88;;;;;;;;;;6273858;28;20049;-80
2022/01/23 18:30:24;;;;;;;15.10;8.40;;;;;;;;;;6266231;28;20049;-80
2022/01/23 18:33:45;;;;;;;9.73;6.70;;;;;;;;;;6271172;28;20049;-80
2022/01/23 18:36:48;;;;;;;14.88;7.15;;;;;;;;;;6265842;28;20052;-79
2022/01/23 18:39:54;;;;;;;8.10;4.80;;;;;;;;;;6279228;28;20059;-81
2022/01/23 18:43:19;;;;;;;13.35;6.55;;;;;;;;;;6234771;28;20060;-81
2022/01/23 18:46:20;;;;;;;19.10;8.27;;;;;;;;;;6269340;28;20565;-78
2022/01/23 18:49:22;;;;;;;16.20;7.18;;;;;;;;;;6273590;28;20051;-79
2022/01/23 18:52:26;;;;;;;17.35;7.90;;;;;;;;;;6289539;28;20159;-78
2022/01/23 18:55:32;;;;;;;13.68;6.65;;;;;;;;;;6284782;28;20040;-80
2022/01/23 18:58:39;;;;;;;10.73;6.00;;;;;;;;;;6268297;28;20041;-80
2022/01/23 19:01:45;;;;;;;14.43;7.38;;;;;;;;;;6264954;28;20048;-82
2022/01/23 19:04:58;;;;;;;18.95;8.48;;;;;;;;;;6266545;28;20053;-78
2022/01/23 19:08:12;;;;;;;13.30;6.30;;;;;;;;;;6266674;28;20037;-80
2022/01/23 19:11:17;;;;;;;9.85;5.25;;;;;;;;;;6257205;28;20059;-82
2022/01/23 19:14:22;;;;;;;12.95;6.40;;;;;;;;;;6264788;28;20045;-80
2022/01/23 19:17:23;;;;;;;9.68;5.75;;;;;;;;;;6262635;28;20060;-79
2022/01/23 19:20:34;;;;;;;10.10;5.10;;;;;;;;;;6264545;28;20401;-78
2022/01/23 19:23:38;;;;;;;7.47;4.50;;;;;;;;;;6267547;28;20048;-78
2022/01/23 19:26:40;;;;;;;9.80;5.55;;;;;;;;;;6264655;28;20056;-79
2022/01/23 19:29:43;;;;;;;11.40;6.00;;;;;;;;;;6262650;28;20199;-80
2022/01/23 19:32:48;;;;;;;10.63;6.93;;;;;;;;;;6278514;28;20433;-80
2022/01/23 19:35:52;;;;;;;11.02;6.00;;;;;;;;;;6263327;28;20048;-81
2022/01/23 19:38:54;;;;;;;10.35;6.05;;;;;;;;;;6265012;28;20055;-78
2022/01/23 19:42:04;;;;;;;19.15;8.60;;;;;;;;;;6260757;28;20037;-80
2022/01/23 19:45:06;;;;;;;24.25;11.40;;;;;;;;;;6280052;28;20181;-78
2022/01/23 19:51:22;;;;;;;11.13;6.20;;;;;;;;;;6263442;28;20045;-79
2022/01/23 19:54:23;;;;;;;33.30;17.88;;;;;;;;;;6257539;28;20048;-82
2022/01/23 19:57:25;;;;;;;9.07;5.82;;;;;;;;;;6269797;28;20053;-81
2022/01/23 20:00:28;;;;;;;6.63;4.20;;;;;;;;;;6244670;28;20041;-81
2022/01/23 20:03:35;;;;;;;7.93;4.25;;;;;;;;;;6257352;28;20715;-82
2022/01/23 20:06:40;;;;;;;18.70;11.85;;;;;;;;;;6263652;28;20052;-79
2022/01/23 20:09:48;;;;;;;10.18;6.43;;;;;;;;;;6262802;28;20037;-80
2022/01/23 20:12:52;;;;;;;7.80;5.28;;;;;;;;;;6263307;28;20418;-79
2022/01/23 20:15:54;;;;;;;8.15;5.53;;;;;;;;;;6265613;28;20106;-81
2022/01/23 20:18:56;;;;;;;10.48;6.50;;;;;;;;;;6222210;28;20435;-79
2022/01/23 20:21:58;;;;;;;11.70;7.60;;;;;;;;;;6233606;28;20049;-81
2022/01/23 20:25:28;;;;;;;23.08;13.25;;;;;;;;;;6242623;28;20045;-80
2022/01/23 20:28:29;;;;;;;9.00;6.35;;;;;;;;;;6258283;28;20479;-80
2022/01/23 20:31:33;;;;;;;20.40;10.85;;;;;;;;;;6253907;28;20126;-79
2022/01/23 20:34:35;;;;;;;12.40;7.18;;;;;;;;;;6271192;28;20036;-80
2022/01/23 20:37:39;;;;;;;12.93;7.72;;;;;;;;;;6258807;28;20098;-80
2022/01/23 20:40:56;;;;;;;10.60;6.57;;;;;;;;;;6272281;28;20048;-79
2022/01/23 20:43:58;;;;;;;46.25;24.13;;;;;;;;;;6242788;28;20123;-82
2022/01/23 20:47:00;;;;;;;19.58;10.93;;;;;;;;;;6256663;28;20045;-78
2022/01/23 20:50:03;;;;;;;11.73;6.40;;;;;;;;;;6258787;28;20525;-79
2022/01/23 20:53:08;;;;;;;9.38;5.50;;;;;;;;;;6276013;28;20049;-81
2022/01/23 20:56:18;;;;;;;16.92;8.88;;;;;;;;;;6260444;28;20047;-80
2022/01/23 20:59:20;;;;;;;56.25;29.00;;;;;;;;;;6258088;28;20449;-77
2022/01/23 21:02:22;;;;;;;16.35;8.60;;;;;;;;;;6260537;28;20204;-80
2022/01/23 21:05:24;;;;;;;17.02;8.70;;;;;;;;;;6263513;28;20125;-78
2022/01/23 21:08:25;;;;;;;13.70;7.85;;;;;;;;;;6260892;28;20843;-80
2022/01/23 21:11:29;;;;;;;15.68;8.50;;;;;;;;;;6259598;28;20041;-81
2022/01/23 21:14:50;;;;;;;;;;;;;;;;;;6258799;28;20056;-79
2022/01/23 21:40:46;;;;;;;4.30;2.17;;;;;;;;;;6280424;28;20044;-81
2022/01/23 21:43:47;;;;;;;4.40;2.30;;;;;;;;;;6246609;28;20041;-82
2022/01/23 21:46:50;;;;;;;2.87;1.63;;;;;;;;;;6261132;28;20041;-81
2022/01/23 21:49:52;;;;;;;2.58;1.75;;;;;;;;;;6262995;28;20068;-82
2022/01/23 21:52:53;;;;;;;4.60;1.95;;;;;;;;;;6263786;28;20063;-80
2022/01/23 21:55:55;;;;;;;3.20;1.88;;;;;;;;;;6261723;28;20047;-78
2022/01/23 21:58:57;;;;;;;4.60;1.80;;;;;;;;;;6245693;28;20128;-80
2022/01/23 22:01:59;;;;;;;3.42;1.67;;;;;;;;;;6260679;28;20097;-81
2022/01/23 22:05:20;;;;;;;3.28;1.63;;;;;;;;;;6263341;28;20057;-82
2022/01/23 22:08:23;;;;;;;2.58;1.50;;;;;;;;;;6279718;28;20104;-81
2022/01/23 22:11:32;;;;;;;2.53;1.40;;;;;;;;;;6265268;28;20052;-79
2022/01/23 22:17:54;;;;;;;2.70;1.40;;;;;;;;;;6287568;28;20486;-82